Time;durP1;ratioP1;P1;durP2;ratioP2;P2;SDS_P1;SDS_P2;PMS_P1;PMS_P2;Temp;Humidity;BMP_temperature;BMP_pressure;BME280_temperature;BME280_humidity;BME280_pressure;Samples;Min_cycle;Max_cycle;Signal;HPM_P1;HPM_P2
2021/08/23 00:04:38;;;;;;;11.27;10.20;;;;;;;18.88;71.73;99849.77;254056;1104;117590;-68
2021/08/23 00:09:42;;;;;;;11.38;9.60;;;;;;;18.82;71.74;99851.70;254253;1104;116632;-67
2021/08/23 00:14:46;;;;;;;13.25;10.53;;;;;;;18.83;72.08;99842.52;254127;1104;117207;-67
2021/08/23 00:19:49;;;;;;;10.33;9.18;;;;;;;18.84;72.27;99838.72;254185;1104;116299;-68
2021/08/23 00:24:52;;;;;;;9.35;8.53;;;;;;;18.72;71.81;99832.90;255739;1104;115980;-66
2021/08/23 00:29:56;;;;;;;9.98;8.95;;;;;;;18.69;72.27;99841.56;254110;1104;116711;-66
2021/08/23 00:34:59;;;;;;;13.93;10.23;;;;;;;18.69;72.66;99850.47;255413;1104;116868;-68
2021/08/23 00:40:03;;;;;;;10.13;9.28;;;;;;;18.71;72.50;99845.59;254344;1104;117127;-69
2021/08/23 00:45:07;;;;;;;10.18;9.30;;;;;;;18.68;72.30;99829.16;253978;1104;116483;-70
2021/08/23 00:50:11;;;;;;;11.50;10.17;;;;;;;18.66;72.81;99825.94;254189;1104;117568;-67
2021/08/23 00:55:13;;;;;;;11.98;10.35;;;;;;;18.69;72.74;99828.06;254924;1104;116732;-69
2021/08/23 01:00:16;;;;;;;10.78;9.88;;;;;;;18.73;72.71;99838.02;254188;1104;116577;-68
2021/08/23 01:05:26;;;;;;;10.45;9.55;;;;;;;18.73;73.00;99842.61;255962;1104;116567;-70
2021/08/23 01:10:37;;;;;;;11.75;10.48;;;;;;;18.72;72.80;99832.90;254225;1104;115220;-71
2021/08/23 01:15:40;;;;;;;10.75;9.60;;;;;;;18.64;72.42;99830.84;254091;1104;120916;-69
2021/08/23 01:20:46;;;;;;;11.40;10.30;;;;;;;18.45;72.61;99831.51;254221;1104;115145;-70
2021/08/23 01:25:49;;;;;;;;;;;;;;;18.38;73.06;99825.63;254780;1104;116496;-69
2021/08/23 01:31:13;;;;;;;11.13;10.00;;;;;;;18.44;73.52;99821.00;255255;1104;103738;-71
2021/08/23 01:36:17;;;;;;;12.90;11.80;;;;;;;18.53;73.72;99826.59;255085;1104;115850;-71
2021/08/23 01:41:21;;;;;;;11.35;10.35;;;;;;;18.57;73.76;99819.54;254868;1100;115011;-69
2021/08/23 01:46:32;;;;;;;12.67;11.17;;;;;;;18.56;73.61;99828.72;254316;1104;117232;-69
2021/08/23 01:51:35;;;;;;;12.03;10.88;;;;;;;18.54;73.80;99834.41;254226;1104;116950;-71
2021/08/23 01:56:38;;;;;;;11.95;10.68;;;;;;;18.57;73.83;99833.84;254707;1104;117703;-70
2021/08/23 02:01:41;;;;;;;11.05;9.95;;;;;;;18.58;73.70;99819.25;255730;1100;115842;-70
2021/08/23 02:06:45;;;;;;;11.18;10.13;;;;;;;18.56;73.47;99816.03;254967;1104;115193;-71
2021/08/23 02:11:48;;;;;;;12.60;11.43;;;;;;;18.54;73.80;99804.71;254779;1099;115629;-69
2021/08/23 02:16:54;;;;;;;10.23;9.28;;;;;;;18.50;73.41;99790.98;254368;1104;116361;-69
2021/08/23 02:22:01;;;;;;;10.93;9.87;;;;;;;18.40;73.55;99791.06;256388;1104;115290;-70
2021/08/23 02:27:09;;;;;;;16.05;11.40;;;;;;;18.42;73.72;99786.19;256680;1104;115742;-70
2021/08/23 02:32:13;;;;;;;12.80;11.50;;;;;;;18.43;73.80;99787.00;257123;1104;115511;-69
2021/08/23 02:37:16;;;;;;;11.63;10.43;;;;;;;18.42;73.89;99788.09;254625;1104;115885;-69
2021/08/23 02:42:20;;;;;;;11.40;10.30;;;;;;;18.45;73.85;99814.52;255063;1104;116036;-69
2021/08/23 02:47:23;;;;;;;17.40;11.10;;;;;;;18.40;73.68;99822.65;254893;1104;118232;-69
2021/08/23 02:52:26;;;;;;;14.95;12.73;;;;;;;18.38;73.81;99835.63;254065;1104;115544;-70
2021/08/23 02:57:28;;;;;;;12.90;10.58;;;;;;;18.34;73.82;99818.41;254632;1104;115653;-70
2021/08/23 03:02:30;;;;;;;11.70;10.60;;;;;;;18.29;73.82;99815.75;255554;1104;115590;-70
2021/08/23 03:07:34;;;;;;;11.40;10.30;;;;;;;18.26;73.83;99787.44;254156;1104;116820;-69
2021/08/23 03:12:36;;;;;;;11.73;10.48;;;;;;;18.24;73.82;99770.73;253981;1100;119125;-69
2021/08/23 03:17:38;;;;;;;11.00;9.88;;;;;;;18.20;73.82;99788.56;254169;1104;115713;-69
2021/08/23 03:22:43;;;;;;;11.60;9.60;;;;;;;18.13;73.82;99813.17;254118;1104;115201;-69
2021/08/23 03:27:46;;;;;;;12.13;10.70;;;;;;;18.08;73.81;99802.42;254200;1104;115173;-69
2021/08/23 03:32:49;;;;;;;11.23;10.18;;;;;;;18.00;73.70;99797.65;254145;1104;117416;-69
2021/08/23 03:37:53;;;;;;;12.35;11.13;;;;;;;17.95;73.90;99792.29;254346;1104;115520;-70
2021/08/23 03:42:56;;;;;;;10.88;9.90;;;;;;;17.95;74.15;99786.89;255066;1104;116054;-69
2021/08/23 03:48:00;;;;;;;12.27;11.13;;;;;;;17.93;74.21;99780.17;254456;1104;115580;-70
2021/08/23 03:53:03;;;;;;;11.78;10.58;;;;;;;17.92;74.29;99773.97;254177;1104;116628;-70
2021/08/23 03:58:06;;;;;;;12.05;10.53;;;;;;;17.94;73.99;99779.09;254999;1104;115703;-70
2021/08/23 04:03:09;;;;;;;16.05;11.23;;;;;;;17.94;74.24;99782.59;255231;1104;115941;-69
2021/08/23 04:08:12;;;;;;;11.65;10.63;;;;;;;17.95;74.24;99780.70;254031;1104;115554;-70
2021/08/23 04:13:15;;;;;;;11.73;10.73;;;;;;;17.95;74.21;99780.70;254914;1104;115555;-70
2021/08/23 04:18:18;;;;;;;11.90;9.37;;;;;;;17.91;73.98;99785.84;254200;1104;115869;-69
2021/08/23 04:23:22;;;;;;;13.88;10.38;;;;;;;17.89;74.26;99795.30;254238;1104;117089;-69
2021/08/23 04:28:26;;;;;;;11.60;9.38;;;;;;;17.88;74.32;99815.27;254340;1098;116252;-69
2021/08/23 04:33:29;;;;;;;11.88;10.40;;;;;;;17.84;74.06;99823.91;254022;1104;115591;-69
2021/08/23 04:38:32;;;;;;;13.28;11.60;;;;;;;17.81;74.16;99826.36;257178;1104;115373;-69
2021/08/23 04:43:36;;;;;;;10.68;9.68;;;;;;;17.77;74.10;99831.50;256904;1104;115541;-69
2021/08/23 04:48:39;;;;;;;10.83;9.78;;;;;;;17.78;74.30;99841.20;257251;1104;115276;-71
2021/08/23 04:53:42;;;;;;;12.88;10.58;;;;;;;17.86;74.33;99833.61;256955;1104;117396;-71
2021/08/23 04:58:46;;;;;;;12.78;9.73;;;;;;;17.92;74.39;99843.28;254657;1104;115338;-69
2021/08/23 05:03:49;;;;;;;10.48;9.53;;;;;;;17.92;74.38;99832.50;256077;1099;116188;-70
2021/08/23 05:08:54;;;;;;;11.08;9.95;;;;;;;17.90;74.54;99840.87;254979;1104;115630;-71
2021/08/23 05:13:56;;;;;;;10.93;9.83;;;;;;;17.90;74.31;99837.36;254672;1104;115217;-69
2021/08/23 05:19:00;;;;;;;11.20;9.87;;;;;;;17.89;74.27;99827.66;254116;1104;115833;-69
2021/08/23 05:24:04;;;;;;;10.63;9.53;;;;;;;17.88;74.56;99820.66;254565;1104;115630;-68
2021/08/23 05:29:06;;;;;;;10.43;9.38;;;;;;;17.90;74.67;99827.38;255173;1099;115358;-69
2021/08/23 05:34:09;;;;;;;11.23;9.88;;;;;;;17.89;74.56;99816.88;254935;1104;116689;-69
2021/08/23 05:39:12;;;;;;;10.60;9.63;;;;;;;17.87;74.66;99819.05;255060;1104;116621;-69
2021/08/23 05:44:14;;;;;;;13.90;10.47;;;;;;;17.81;74.42;99816.38;254352;1104;115800;-69
2021/08/23 05:49:18;;;;;;;10.53;9.58;;;;;;;17.80;74.91;99825.55;254217;1104;115912;-69
2021/08/23 05:54:22;;;;;;;10.88;9.88;;;;;;;17.81;74.92;99827.16;254217;1104;116052;-69
2021/08/23 05:59:25;;;;;;;9.98;9.00;;;;;;;17.81;74.67;99832.55;254246;1104;116648;-70
2021/08/23 06:04:29;;;;;;;12.45;10.13;;;;;;;17.80;74.69;99828.25;254669;1104;117257;-69
2021/08/23 06:09:34;;;;;;;10.37;9.33;;;;;;;17.75;74.64;99833.67;254417;1104;116854;-68
2021/08/23 06:14:40;;;;;;;11.60;10.48;;;;;;;17.67;74.85;99820.80;254250;1100;116239;-69
2021/08/23 06:19:44;;;;;;;13.98;9.50;;;;;;;17.64;74.78;99828.61;254237;1104;116604;-69
2021/08/23 06:24:53;;;;;;;10.33;8.85;;;;;;;17.60;74.98;99822.96;253994;1098;115968;-68
2021/08/23 06:29:56;;;;;;;10.10;8.75;;;;;;;17.53;74.68;99813.56;254060;1104;115677;-67
2021/08/23 06:34:59;;;;;;;15.57;9.03;;;;;;;17.47;74.75;99805.50;254374;1104;115528;-67
2021/08/23 06:40:08;;;;;;;9.58;8.58;;;;;;;17.43;74.97;99819.81;257273;1104;115591;-68
2021/08/23 06:45:11;;;;;;;12.43;9.68;;;;;;;17.48;75.27;99809.00;257292;1104;115302;-68
2021/08/23 06:50:13;;;;;;;9.63;8.77;;;;;;;17.55;75.29;99817.59;256228;1104;115664;-68
2021/08/23 06:55:17;;;;;;;8.63;7.90;;;;;;;17.62;75.17;99823.48;256996;1104;116519;-69
2021/08/23 07:00:20;;;;;;;10.35;9.35;;;;;;;17.68;75.14;99822.41;255960;1104;116006;-69
2021/08/23 07:05:24;;;;;;;9.95;8.95;;;;;;;17.79;75.35;99829.33;254768;1104;116784;-68
2021/08/23 07:10:28;;;;;;;11.20;10.20;;;;;;;17.79;75.52;99839.31;255891;1104;116156;-69
2021/08/23 07:15:31;;;;;;;13.50;10.18;;;;;;;17.72;75.08;99836.95;255825;1104;115839;-69
2021/08/23 07:20:34;;;;;;;10.00;9.10;;;;;;;17.74;75.19;99829.36;255310;1104;116129;-69
2021/08/23 07:25:37;;;;;;;9.93;8.93;;;;;;;17.78;75.37;99838.50;255250;1104;115752;-69
2021/08/23 07:30:43;;;;;;;11.15;8.90;;;;;;;17.83;75.43;99830.39;255376;1104;115346;-69
2021/08/23 07:35:46;;;;;;;9.23;8.40;;;;;;;17.93;75.22;99831.41;255147;1104;115726;-68
2021/08/23 07:40:49;;;;;;;10.18;8.55;;;;;;;17.98;75.11;99834.88;254694;1104;115864;-67
2021/08/23 07:45:53;;;;;;;10.40;9.40;;;;;;;17.98;75.04;99832.19;254418;1104;117423;-69
2021/08/23 07:50:56;;;;;;;10.50;8.90;;;;;;;18.05;75.13;99826.45;254160;1104;116339;-69
2021/08/23 07:55:59;;;;;;;10.88;9.80;;;;;;;18.00;74.99;99826.52;254152;1104;117549;-69
2021/08/23 08:01:02;;;;;;;10.58;7.73;;;;;;;18.06;75.21;99844.24;254606;1104;118207;-68
2021/08/23 08:06:08;;;;;;;9.58;8.65;;;;;;;18.10;74.91;99851.50;254350;1104;115360;-67
2021/08/23 08:11:12;;;;;;;10.38;8.63;;;;;;;18.11;74.82;99860.40;254205;1104;115633;-68
2021/08/23 08:16:15;;;;;;;8.83;7.93;;;;;;;18.06;74.96;99863.13;254198;1104;115692;-69
2021/08/23 08:21:19;;;;;;;9.10;8.38;;;;;;;18.06;74.91;99861.23;254110;1104;116380;-68
2021/08/23 08:26:23;;;;;;;10.10;9.20;;;;;;;18.08;74.85;99869.05;254202;1104;117627;-67
2021/08/23 08:31:27;;;;;;;13.25;8.28;;;;;;;18.02;74.77;99865.61;253982;1104;116217;-67
2021/08/23 08:36:31;;;;;;;11.28;9.03;;;;;;;18.01;74.92;99860.49;255348;1104;117087;-67
2021/08/23 08:41:37;;;;;;;11.95;7.35;;;;;;;18.00;74.76;99862.38;254229;1104;116400;-67
2021/08/23 08:46:41;;;;;;;10.60;8.20;;;;;;;17.99;74.80;99866.16;254201;1104;119028;-69
2021/08/23 08:51:46;;;;;;;8.65;7.78;;;;;;;17.99;74.78;99876.14;257199;1104;115335;-69
2021/08/23 08:56:50;;;;;;;12.03;8.50;;;;;;;18.02;74.80;99864.80;257019;1104;115057;-71
2021/08/23 09:01:53;;;;;;;10.25;9.23;;;;;;;18.06;74.72;99857.73;256981;1104;115514;-71
2021/08/23 09:06:58;;;;;;;11.20;8.58;;;;;;;18.01;74.72;99861.30;256127;1104;115084;-69
2021/08/23 09:12:11;;;;;;;9.75;8.50;;;;;;;17.95;74.86;99873.20;255463;1104;117250;-67
2021/08/23 09:17:13;;;;;;;9.30;8.30;;;;;;;17.86;74.82;99865.97;254962;1104;116662;-65
2021/08/23 09:22:18;;;;;;;11.90;8.63;;;;;;;17.78;74.86;99865.47;254834;1104;116204;-67
2021/08/23 09:27:22;;;;;;;;;;;;;;;17.73;75.15;99870.11;254344;1104;116390;-69
2021/08/23 09:32:25;;;;;;;9.90;7.88;;;;;;;17.67;75.00;99873.91;255167;1104;103028;-66
2021/08/23 09:37:31;;;;;;;11.50;9.53;;;;;;;17.66;75.15;99861.52;253868;1098;115593;-67
2021/08/23 09:42:34;;;;;;;;;;;;;;;17.63;75.31;99868.23;255440;1104;116876;-67
2021/08/23 09:47:37;;;;;;;11.63;7.35;;;;;;;17.61;75.22;99873.09;256067;1104;103597;-67
2021/08/23 09:52:41;;;;;;;12.97;8.23;;;;;;;17.57;75.42;99876.62;255862;1104;116159;-67
2021/08/23 09:57:45;;;;;;;14.43;8.88;;;;;;;17.60;75.54;99874.18;255224;1104;116188;-67
2021/08/23 10:02:49;;;;;;;9.83;8.93;;;;;;;17.64;75.64;99869.84;254795;1104;115429;-67
2021/08/23 10:07:53;;;;;;;9.18;8.28;;;;;;;17.68;75.40;99873.63;255256;1104;117361;-70
2021/08/23 10:12:59;;;;;;;10.73;9.75;;;;;;;17.71;75.42;99877.66;254182;1098;115816;-69
2021/08/23 10:18:02;;;;;;;11.00;9.90;;;;;;;17.74;75.73;99877.89;254569;1104;115109;-69
2021/08/23 10:23:08;;;;;;;11.60;10.40;;;;;;;17.79;75.60;99877.87;255023;1099;116352;-68
2021/08/23 10:28:18;;;;;;;13.80;10.80;;;;;;;17.83;75.59;99870.03;255168;1104;115513;-68
2021/08/23 10:33:21;;;;;;;10.83;9.83;;;;;;;17.81;75.50;99875.70;256205;1104;115943;-68
2021/08/23 10:38:27;;;;;;;12.63;10.05;;;;;;;17.84;75.44;99877.03;254319;1100;117317;-69
2021/08/23 10:43:33;;;;;;;10.00;9.20;;;;;;;17.88;75.72;99870.00;255465;1104;115782;-69
2021/08/23 10:48:47;;;;;;;12.80;11.50;;;;;;;17.91;75.63;99882.93;256072;1104;118655;-70
2021/08/23 10:53:51;;;;;;;12.53;11.23;;;;;;;17.94;75.53;99870.78;255354;1104;118395;-70
2021/08/23 10:58:55;;;;;;;10.53;9.55;;;;;;;17.94;75.49;99882.38;257089;1104;115357;-70
2021/08/23 11:04:06;;;;;;;25.83;23.23;;;;;;;17.88;75.31;99885.38;255889;1104;117667;-71
2021/08/23 11:09:12;;;;;;;18.33;16.50;;;;;;;17.82;75.35;99884.59;257070;1104;115485;-68
2021/08/23 11:14:21;;;;;;;31.78;25.08;;;;;;;17.76;75.41;99883.81;254815;1104;115273;-68
2021/08/23 11:19:27;;;;;;;31.10;25.18;;;;;;;17.69;75.47;99877.95;254273;1104;115332;-68
2021/08/23 11:24:33;;;;;;;45.48;38.25;;;;;;;17.63;75.49;99873.63;255241;1104;116611;-68
2021/08/23 11:29:51;;;;;;;15.40;13.83;;;;;;;17.59;75.43;99871.76;254191;1104;115844;-68
2021/08/23 11:34:56;;;;;;;24.47;21.73;;;;;;;17.57;75.74;99866.64;254068;1104;116671;-69
2021/08/23 11:40:09;;;;;;;89.18;74.00;;;;;;;17.56;76.01;99866.92;254711;1104;117242;-69
2021/08/23 11:45:21;;;;;;;46.13;38.95;;;;;;;17.54;76.03;99872.59;254162;1104;116949;-70
2021/08/23 11:50:24;;;;;;;78.25;66.83;;;;;;;17.54;76.16;99866.39;254205;1104;116479;-69
2021/08/23 11:55:30;;;;;;;101.75;80.43;;;;;;;17.53;76.18;99865.58;254210;1104;115901;-68
2021/08/23 12:00:34;;;;;;;208.50;174.43;;;;;;;17.56;76.34;99866.92;254331;1104;116867;-69
2021/08/23 12:05:40;;;;;;;52.88;44.15;;;;;;;17.58;76.29;99868.26;254109;1099;116925;-68
2021/08/23 12:10:51;;;;;;;24.27;19.63;;;;;;;17.61;76.47;99875.79;253915;1104;115176;-68
2021/08/23 12:15:58;;;;;;;11.40;9.45;;;;;;;17.62;76.19;99863.13;255051;1104;116360;-67
2021/08/23 12:21:09;;;;;;;9.60;8.80;;;;;;;17.64;76.63;99869.84;255972;1104;116331;-69
2021/08/23 12:26:14;;;;;;;8.90;8.00;;;;;;;17.61;76.09;99862.31;254847;1104;116305;-67
2021/08/23 12:31:18;;;;;;;9.85;8.98;;;;;;;17.56;76.34;99858.83;255909;1104;117185;-69
2021/08/23 12:36:22;;;;;;;10.13;9.13;;;;;;;17.53;76.40;99867.47;255373;1104;116594;-68
2021/08/23 12:41:26;;;;;;;9.80;7.70;;;;;;;17.47;76.43;99866.69;255678;1104;116598;-67
2021/08/23 12:46:29;;;;;;;10.75;9.35;;;;;;;17.46;76.43;99862.38;254989;1099;117620;-68
2021/08/23 12:51:33;;;;;;;10.78;9.60;;;;;;;17.42;76.43;99864.03;257079;1104;116479;-68
2021/08/23 12:56:38;;;;;;;11.28;10.25;;;;;;;17.43;76.68;99860.23;257100;1104;116283;-68
2021/08/23 13:01:41;;;;;;;12.60;11.38;;;;;;;17.47;76.82;99853.20;257020;1104;117207;-71
2021/08/23 13:06:44;;;;;;;12.83;10.95;;;;;;;17.54;76.79;99861.00;257014;1104;116257;-70
2021/08/23 13:11:48;;;;;;;10.33;9.10;;;;;;;17.55;76.83;99854.52;254342;1104;117885;-68
2021/08/23 13:16:52;;;;;;;11.58;9.68;;;;;;;17.53;76.70;99860.19;256315;1097;116332;-68
2021/08/23 13:22:00;;;;;;;12.27;11.07;;;;;;;17.53;77.06;99860.19;254291;1104;116093;-69
2021/08/23 13:27:04;;;;;;;10.33;9.33;;;;;;;17.46;77.28;99856.98;254491;1104;116265;-67
2021/08/23 13:32:07;;;;;;;11.38;10.18;;;;;;;17.42;77.10;99861.34;255124;1100;116600;-68
2021/08/23 13:37:10;;;;;;;12.00;9.43;;;;;;;17.37;77.15;99861.36;254249;1104;118402;-66
2021/08/23 13:42:13;;;;;;;11.07;10.07;;;;;;;17.27;77.29;99870.28;255234;1104;115319;-66
2021/08/23 13:47:18;;;;;;;10.20;9.00;;;;;;;17.24;77.37;99865.44;254457;1104;116057;-67
2021/08/23 13:52:24;;;;;;;10.90;8.85;;;;;;;17.24;77.53;99867.33;255006;1104;116234;-65
2021/08/23 13:57:27;;;;;;;10.78;8.88;;;;;;;17.22;77.72;99866.80;254589;1104;117307;-67
2021/08/23 14:02:30;;;;;;;9.83;8.98;;;;;;;17.21;77.86;99868.68;254656;1104;116153;-67
2021/08/23 14:07:34;;;;;;;9.53;8.60;;;;;;;17.13;77.87;99856.58;254623;1104;116269;-68
2021/08/23 14:41:17;;;;;;;10.85;8.98;;;;;;;16.53;79.63;99853.99;261086;1104;102969;-67
2021/08/23 14:46:20;;;;;;;9.68;8.78;;;;;;;16.54;79.51;99842.16;254822;1103;114792;-70
2021/08/23 14:51:24;;;;;;;13.03;9.27;;;;;;;16.61;79.88;99846.19;255591;1104;114034;-69
2021/08/23 14:56:27;;;;;;;12.53;9.43;;;;;;;16.71;79.83;99842.71;254951;1104;115984;-67
2021/08/23 15:01:30;;;;;;;15.00;9.83;;;;;;;16.80;79.68;99841.08;255515;1104;114649;-66
2021/08/23 15:06:33;;;;;;;11.78;9.63;;;;;;;16.86;79.79;99837.27;255967;1104;115710;-67
2021/08/23 15:11:37;;;;;;;10.07;8.70;;;;;;;16.94;79.63;99839.41;257119;1104;115129;-67
2021/08/23 15:16:40;;;;;;;9.80;8.87;;;;;;;17.01;79.85;99842.63;257068;1104;115149;-70
2021/08/23 15:21:47;;;;;;;8.03;7.33;;;;;;;17.06;79.64;99839.13;257101;1104;114260;-70
2021/08/23 15:26:50;;;;;;;7.63;6.80;;;;;;;17.11;79.43;99833.72;257018;1104;115648;-70
2021/08/23 15:31:53;;;;;;;6.07;5.63;;;;;;;17.13;79.13;99836.91;257157;1104;116243;-71
2021/08/23 15:36:57;;;;;;;7.03;6.43;;;;;;;17.14;79.44;99838.53;256945;1104;115969;-70
2021/08/23 15:42:00;;;;;;;5.98;5.38;;;;;;;17.09;79.57;99836.69;254229;1104;115434;-70
2021/08/23 15:47:03;;;;;;;6.28;5.78;;;;;;;17.07;79.75;99827.27;254060;1104;115257;-71
2021/08/23 15:52:06;;;;;;;6.18;5.58;;;;;;;17.05;79.70;99835.63;254058;1100;215998;-72
2021/08/23 15:57:13;;;;;;;6.23;5.63;;;;;;;17.08;80.00;99826.99;254312;1104;114459;-69
2021/08/23 16:02:16;;;;;;;4.90;4.23;;;;;;;17.04;79.73;99825.93;254237;1104;175403;-70
2021/08/23 16:07:20;;;;;;;5.88;3.93;;;;;;;16.98;79.71;99828.91;254078;1104;115116;-70
2021/08/23 16:12:26;;;;;;;4.48;3.80;;;;;;;16.93;79.76;99826.22;254138;1104;114960;-69
2021/08/23 16:17:30;;;;;;;4.28;3.65;;;;;;;16.90;80.02;99821.38;254439;1104;115226;-69
2021/08/23 16:22:33;;;;;;;3.70;3.40;;;;;;;16.88;80.15;99826.23;254202;1104;115076;-69
2021/08/23 16:27:38;;;;;;;2.98;2.78;;;;;;;16.87;80.48;99825.42;254532;1104;115538;-68
2021/08/23 16:32:42;;;;;;;3.05;2.78;;;;;;;16.84;80.41;99821.39;254622;1104;115282;-68
2021/08/23 16:37:47;;;;;;;3.40;3.10;;;;;;;16.84;80.27;99828.66;254310;1100;118013;-70
2021/08/23 16:48:44;;;;;;;4.73;3.03;;;;;;;16.78;80.18;99821.70;259305;1093;103030;-67
2021/08/23 16:53:48;;;;;;;3.63;3.33;;;;;;;16.76;80.28;99815.78;254251;1099;115277;-68
2021/08/23 16:58:50;;;;;;;3.73;3.43;;;;;;;16.71;80.60;99818.48;254316;1104;115370;-68
2021/08/23 17:03:57;;;;;;;3.43;3.23;;;;;;;16.70;80.42;99827.64;254510;1104;115713;-72
2021/08/23 17:09:00;;;;;;;3.27;2.87;;;;;;;16.68;80.52;99827.91;254233;1104;115459;-72
2021/08/23 17:14:04;;;;;;;2.27;2.07;;;;;;;16.63;80.73;99827.08;254196;1104;116845;-72
2021/08/23 17:19:07;;;;;;;2.73;2.53;;;;;;;16.55;80.71;99835.69;254223;1104;115915;-70
2021/08/23 17:24:11;;;;;;;2.50;2.30;;;;;;;16.51;80.90;99830.85;257253;1104;116229;-70
2021/08/23 17:29:15;;;;;;;1.60;1.60;;;;;;;16.54;81.11;99834.08;257084;1104;114717;-67
2021/08/23 17:34:18;;;;;;;2.27;2.17;;;;;;;16.54;80.84;99834.89;256944;1104;115126;-69
2021/08/23 17:39:20;;;;;;;2.03;1.93;;;;;;;16.56;80.84;99840.00;256524;1104;114854;-69
2021/08/23 17:44:26;;;;;;;2.60;1.85;;;;;;;16.56;80.67;99832.73;255758;1104;117209;-67
2021/08/23 17:49:36;;;;;;;2.00;1.77;;;;;;;16.56;80.78;99832.73;255781;1104;115717;-68
2021/08/23 17:54:41;;;;;;;1.93;1.83;;;;;;;16.55;80.56;99833.00;255372;1104;114809;-68
2021/08/23 17:59:47;;;;;;;2.97;2.03;;;;;;;16.54;81.00;99840.27;254779;1104;115212;-67
2021/08/23 18:04:51;;;;;;;1.90;1.80;;;;;;;16.54;80.64;99844.84;256215;1104;114325;-67
2021/08/23 18:09:53;;;;;;;2.48;2.28;;;;;;;16.53;81.12;99843.23;254256;1104;116283;-69
2021/08/23 18:14:56;;;;;;;1.98;1.65;;;;;;;16.55;81.04;99862.61;255105;1104;114500;-66
2021/08/23 18:19:59;;;;;;;2.13;1.93;;;;;;;16.47;81.38;99859.41;255017;1104;116387;-66
2021/08/23 18:25:04;;;;;;;3.45;3.15;;;;;;;16.46;81.23;99871.24;254909;1104;114987;-67
2021/08/23 18:30:07;;;;;;;3.25;3.05;;;;;;;16.42;81.43;99880.92;255474;1104;115720;-69
2021/08/23 18:35:10;;;;;;;3.85;3.58;;;;;;;16.36;81.33;99882.00;254711;1104;115837;-67
2021/08/23 18:40:15;;;;;;;8.58;5.08;;;;;;;16.33;81.43;99874.46;254202;1104;116048;-69
2021/08/23 18:45:18;;;;;;;4.60;4.20;;;;;;;16.30;81.69;99880.38;254257;1104;116352;-66
2021/08/23 18:50:22;;;;;;;4.95;4.43;;;;;;;16.29;81.55;99888.71;254274;1104;115633;-72
2021/08/23 18:55:26;;;;;;;4.45;4.05;;;;;;;16.24;81.62;99883.32;254295;1100;115935;-69
2021/08/23 19:00:29;;;;;;;7.67;5.30;;;;;;;16.17;81.65;99891.68;254966;1104;116836;-67
2021/08/23 19:05:33;;;;;;;5.48;4.83;;;;;;;16.15;82.01;99885.77;254090;1098;115314;-67
2021/08/23 19:10:36;;;;;;;5.15;4.65;;;;;;;16.14;81.95;99882.27;254429;1104;117249;-66
2021/08/23 19:15:41;;;;;;;3.75;3.35;;;;;;;16.09;81.97;99890.32;254656;1104;116357;-67
2021/08/23 19:21:01;;;;;;;3.83;3.50;;;;;;;16.07;81.88;99886.28;257408;1104;115747;-67
2021/08/23 19:26:10;;;;;;;4.23;3.93;;;;;;;16.06;81.81;99882.78;257131;1104;116614;-67
2021/08/23 19:31:12;;;;;;;4.30;3.97;;;;;;;16.05;82.00;99901.88;255007;1104;116668;-67
2021/08/23 19:36:16;;;;;;;3.60;3.27;;;;;;;16.06;82.30;99895.42;256087;1104;117202;-67
2021/08/23 19:41:18;;;;;;;4.40;3.38;;;;;;;16.04;82.15;99905.63;254037;1104;115910;-68
2021/08/23 19:46:22;;;;;;;4.25;3.85;;;;;;;16.01;82.31;99911.54;254318;1104;114831;-68
2021/08/23 19:51:25;;;;;;;3.20;2.90;;;;;;;15.98;82.32;99917.45;257313;1103;116087;-69
2021/08/23 19:56:29;;;;;;;3.53;3.23;;;;;;;15.94;82.46;99916.36;255591;1104;115606;-69
2021/08/23 20:01:32;;;;;;;2.70;2.50;;;;;;;15.94;82.54;99924.42;254392;1104;115574;-70
2021/08/23 20:06:36;;;;;;;2.58;2.38;;;;;;;15.88;82.34;99907.50;254560;1104;115646;-68
2021/08/23 20:11:43;;;;;;;3.00;2.75;;;;;;;15.87;82.49;99921.20;255243;1100;115774;-70
2021/08/23 20:16:47;;;;;;;3.00;2.80;;;;;;;15.80;82.67;99916.06;254336;1104;116270;-70
2021/08/23 20:21:52;;;;;;;2.80;2.60;;;;;;;15.76;82.73;99923.84;254922;1100;115289;-68
2021/08/23 20:26:55;;;;;;;2.60;2.40;;;;;;;15.70;82.16;99927.59;255268;1104;116061;-67
2021/08/23 20:32:00;;;;;;;2.93;2.73;;;;;;;15.67;82.77;99935.36;255293;1103;115974;-66
2021/08/23 20:42:28;;;;;;;2.58;2.38;;;;;;;15.61;82.37;99939.91;255070;1104;116570;-66
2021/08/23 20:47:47;;;;;;;1.70;1.60;;;;;;;15.58;82.53;99945.83;254265;1104;115484;-71
2021/08/23 20:52:59;;;;;;;2.63;2.43;;;;;;;15.56;82.73;99942.59;254867;1104;115743;-66
2021/08/23 20:58:03;;;;;;;2.67;2.47;;;;;;;15.52;82.94;99962.16;254384;1104;117335;-69
2021/08/23 21:03:07;;;;;;;2.58;2.43;;;;;;;15.52;83.27;99967.52;254737;1104;115455;-70
2021/08/23 21:08:12;;;;;;;3.23;3.03;;;;;;;15.52;83.45;99973.70;255449;1104;115460;-65
2021/08/23 21:13:15;;;;;;;2.50;2.30;;;;;;;15.55;83.09;99977.75;255895;1104;115810;-66
2021/08/23 21:18:18;;;;;;;4.60;2.53;;;;;;;15.57;82.96;99981.83;255108;1104;115859;-66
2021/08/23 21:23:24;;;;;;;3.73;2.88;;;;;;;15.59;82.85;99974.31;254247;1104;115829;-69
2021/08/23 21:28:29;;;;;;;7.50;3.70;;;;;;;15.57;82.93;99997.95;254296;1104;115639;-70
2021/08/23 21:33:33;;;;;;;3.75;3.33;;;;;;;15.58;82.95;99982.64;254306;1104;116827;-69
2021/08/23 21:38:42;;;;;;;3.60;3.13;;;;;;;15.58;83.16;99975.39;254239;1104;116208;-69
2021/08/23 21:43:46;;;;;;;3.00;2.80;;;;;;;15.56;82.96;99974.00;254471;1104;115978;-67
2021/08/23 21:48:49;;;;;;;3.88;3.08;;;;;;;15.56;83.29;99984.74;255085;1098;115342;-66
2021/08/23 21:53:52;;;;;;;3.50;3.30;;;;;;;15.57;83.30;99971.08;257433;1104;116426;-66
2021/08/23 21:58:55;;;;;;;4.93;3.83;;;;;;;15.61;83.33;99982.09;254863;1104;116072;-67
2021/08/23 22:04:24;;;;;;;5.30;4.53;;;;;;;15.63;83.06;99980.76;257202;1103;115124;-69
2021/08/23 22:09:27;;;;;;;3.97;3.67;;;;;;;15.67;83.14;99981.86;255940;1104;114950;-66
2021/08/23 22:14:33;;;;;;;3.47;3.17;;;;;;;15.70;83.62;99986.70;255923;1104;115065;-67
2021/08/23 22:19:41;;;;;;;4.53;3.98;;;;;;;15.73;83.05;99991.56;255451;1104;114458;-68
2021/08/23 22:24:44;;;;;;;4.48;4.18;;;;;;;15.76;83.17;99999.11;254243;1104;115369;-68
2021/08/23 22:29:50;;;;;;;4.33;3.98;;;;;;;15.75;83.57;99984.05;255531;1104;115133;-70
2021/08/23 22:34:54;;;;;;;3.75;3.45;;;;;;;15.75;83.53;99988.61;254765;1104;114755;-68
2021/08/23 22:39:58;;;;;;;4.33;4.03;;;;;;;15.72;83.18;100006.07;254696;1104;115805;-66
2021/08/23 22:45:02;;;;;;;4.20;3.83;;;;;;;15.74;83.75;100006.62;254767;1104;114673;-67
2021/08/23 22:50:06;;;;;;;3.95;3.65;;;;;;;15.73;83.52;99991.56;255131;1104;116142;-65
2021/08/23 22:55:14;;;;;;;6.87;4.87;;;;;;;15.72;83.39;99994.52;254651;1104;114258;-68
2021/08/23 23:00:21;;;;;;;5.85;5.35;;;;;;;15.70;83.31;99996.65;254646;1104;114682;-66
2021/08/23 23:05:26;;;;;;;6.78;6.08;;;;;;;15.74;83.35;100009.31;254590;1104;115176;-68
2021/08/23 23:10:30;;;;;;;7.58;6.13;;;;;;;15.74;83.44;100017.38;254195;1104;118543;-69
2021/08/23 23:15:34;;;;;;;7.33;6.73;;;;;;;15.77;83.75;100014.16;254962;1099;114680;-68
2021/08/23 23:20:39;;;;;;;6.07;5.57;;;;;;;15.80;83.38;100013.64;254336;1104;116375;-65
2021/08/23 23:25:42;;;;;;;6.75;6.15;;;;;;;15.83;83.83;100015.81;254909;1104;116219;-65
2021/08/23 23:30:46;;;;;;;6.23;5.70;;;;;;;15.82;83.45;100022.25;255417;1104;115524;-64
2021/08/23 23:35:53;;;;;;;6.70;6.08;;;;;;;15.83;84.01;100026.56;255837;1104;115603;-64
2021/08/23 23:40:59;;;;;;;7.40;6.80;;;;;;;15.85;83.54;100020.12;254780;1104;116106;-67
2021/08/23 23:46:04;;;;;;;7.83;6.53;;;;;;;15.85;83.07;100030.87;254351;1104;117407;-67
2021/08/23 23:51:07;;;;;;;7.00;6.30;;;;;;;15.83;83.25;100031.13;257344;1104;116348;-64